createdAt,value
2022-07-25T00:01:53.795Z,23.40
2022-07-25T00:04:22.939Z,23.40
2022-07-25T00:06:53.448Z,23.40
2022-07-25T00:09:23.121Z,23.40
2022-07-25T00:12:00.725Z,23.30
2022-07-25T00:14:39.288Z,23.40
2022-07-25T00:17:09.854Z,23.30
2022-07-25T00:19:40.034Z,23.30
2022-07-25T00:22:14.000Z,23.30
2022-07-25T00:24:47.814Z,23.30
2022-07-25T00:27:19.419Z,23.20
2022-07-25T00:29:51.396Z,23.20
2022-07-25T00:32:21.540Z,23.10
2022-07-25T00:34:55.788Z,23.10
2022-07-25T00:37:33.809Z,23.10
2022-07-25T00:40:05.588Z,23.10
2022-07-25T00:42:40.240Z,23.00
2022-07-25T00:45:24.182Z,23.00
2022-07-25T00:47:55.354Z,23.00
2022-07-25T00:50:25.043Z,23.00
2022-07-25T00:53:00.920Z,23.00
2022-07-25T00:55:36.201Z,22.90
2022-07-25T00:58:24.958Z,22.90
2022-07-25T01:00:56.980Z,22.90
2022-07-25T01:03:39.802Z,22.90
2022-07-25T01:06:15.655Z,22.80
2022-07-25T01:08:53.096Z,22.80
2022-07-25T01:11:34.244Z,22.80
2022-07-25T01:14:06.514Z,22.80
2022-07-25T01:16:38.077Z,22.80
2022-07-25T01:19:16.267Z,22.80
2022-07-25T01:21:49.692Z,22.80
2022-07-25T01:24:21.893Z,22.80
2022-07-25T01:26:51.796Z,22.80
2022-07-25T01:29:33.142Z,22.80
2022-07-25T01:32:06.048Z,22.80
2022-07-25T01:34:36.643Z,22.80
2022-07-25T01:37:13.817Z,22.80
2022-07-25T01:39:46.174Z,22.80
2022-07-25T01:42:19.173Z,22.80
2022-07-25T01:44:48.912Z,22.70
2022-07-25T01:47:19.247Z,22.70
2022-07-25T01:49:49.191Z,22.70
2022-07-25T01:52:19.783Z,22.60
2022-07-25T01:54:49.716Z,22.60
2022-07-25T01:57:18.756Z,22.60
2022-07-25T01:59:48.692Z,22.40
2022-07-25T02:02:30.438Z,22.30
2022-07-25T02:05:01.516Z,22.30
2022-07-25T02:07:41.788Z,22.20
2022-07-25T02:10:11.712Z,22.20
2022-07-25T02:12:44.225Z,22.20
2022-07-25T02:15:19.670Z,22.10
2022-07-25T02:17:53.808Z,21.90
2022-07-25T02:20:24.041Z,22.00
2022-07-25T02:22:57.322Z,22.00
2022-07-25T02:25:29.336Z,22.00
2022-07-25T02:28:01.886Z,21.90
2022-07-25T02:30:35.273Z,21.90
2022-07-25T02:33:05.895Z,21.80
2022-07-25T02:35:35.874Z,21.80
2022-07-25T02:38:06.062Z,21.70
2022-07-25T02:40:35.712Z,21.60
2022-07-25T02:43:04.878Z,21.70
2022-07-25T02:45:35.583Z,21.70
2022-07-25T02:48:10.690Z,21.60
2022-07-25T02:50:39.909Z,21.70
2022-07-25T02:53:11.896Z,21.60
2022-07-25T02:55:49.655Z,21.60
2022-07-25T02:58:19.503Z,21.40
2022-07-25T03:00:53.952Z,21.50
2022-07-25T03:03:23.899Z,21.60
2022-07-25T03:06:04.150Z,21.50
2022-07-25T03:08:36.037Z,21.50
2022-07-25T03:11:09.659Z,21.40
2022-07-25T03:13:41.761Z,21.40
2022-07-25T03:16:14.824Z,21.40
2022-07-25T03:18:46.760Z,21.40
2022-07-25T03:21:19.992Z,21.50
2022-07-25T03:23:57.598Z,21.50
2022-07-25T03:26:27.533Z,21.50
2022-07-25T03:28:57.959Z,21.50
2022-07-25T03:31:36.148Z,21.50
2022-07-25T03:34:06.488Z,21.50
2022-07-25T03:36:45.845Z,21.50
2022-07-25T03:39:18.009Z,21.50
2022-07-25T03:41:47.891Z,21.60
2022-07-25T03:44:22.088Z,21.60
2022-07-25T03:46:51.627Z,21.60
2022-07-25T03:49:26.721Z,21.50
2022-07-25T03:51:56.424Z,21.50
2022-07-25T03:54:29.777Z,21.50
2022-07-25T03:57:07.919Z,21.50
2022-07-25T03:59:38.880Z,21.50
2022-07-25T04:02:09.927Z,21.50
2022-07-25T04:04:39.859Z,21.50
2022-07-25T04:07:13.059Z,21.40
2022-07-25T04:09:45.716Z,21.50
2022-07-25T04:12:16.070Z,21.40
2022-07-25T04:14:46.911Z,21.40
2022-07-25T04:17:20.679Z,21.40
2022-07-25T04:19:58.359Z,21.40
2022-07-25T04:22:28.079Z,21.40
2022-07-25T04:24:57.869Z,21.40
2022-07-25T04:27:28.739Z,21.40
2022-07-25T04:30:01.985Z,21.50
2022-07-25T04:32:32.457Z,21.50
2022-07-25T04:35:01.992Z,21.50
2022-07-25T04:37:31.956Z,21.60
2022-07-25T04:40:02.876Z,21.50
2022-07-25T04:42:36.299Z,21.60
2022-07-25T04:45:09.433Z,21.70
2022-07-25T04:47:42.004Z,21.70
2022-07-25T04:50:15.634Z,21.70
2022-07-25T04:52:53.775Z,21.70
2022-07-25T04:55:25.555Z,21.80
2022-07-25T04:57:56.273Z,21.80
2022-07-25T05:00:29.517Z,21.70
2022-07-25T05:03:06.240Z,21.80
2022-07-25T05:05:42.264Z,21.80
2022-07-25T05:08:17.365Z,21.80
2022-07-25T05:10:51.048Z,21.80
2022-07-25T05:13:26.680Z,21.80
2022-07-25T05:15:57.484Z,21.80
2022-07-25T05:18:27.016Z,21.80
2022-07-25T05:21:03.357Z,21.90
2022-07-25T05:23:32.645Z,21.90
2022-07-25T05:26:06.674Z,21.90
2022-07-25T05:28:44.012Z,22.00
2022-07-25T05:31:19.366Z,22.10
2022-07-25T05:33:56.351Z,22.20
2022-07-25T05:36:29.957Z,22.30
2022-07-25T05:38:59.824Z,22.30
2022-07-25T05:41:36.395Z,22.40
2022-07-25T05:44:08.175Z,22.50
2022-07-25T05:46:37.977Z,22.40
2022-07-25T05:49:11.531Z,22.50
2022-07-25T05:51:43.107Z,22.50
2022-07-25T05:54:13.524Z,22.40
2022-07-25T05:56:53.405Z,22.40
2022-07-25T05:59:26.191Z,22.40
2022-07-25T06:01:59.793Z,22.50
2022-07-25T06:04:32.567Z,22.50
2022-07-25T06:07:02.400Z,22.50
2022-07-25T06:09:32.115Z,22.60
2022-07-25T06:12:18.136Z,22.70
2022-07-25T06:14:50.756Z,22.80
2022-07-25T06:17:22.676Z,22.90
2022-07-25T06:19:52.634Z,23.20
2022-07-25T06:22:36.330Z,23.60
2022-07-25T06:25:14.019Z,23.70
2022-07-25T06:27:44.453Z,23.80
2022-07-25T06:30:25.298Z,23.60
2022-07-25T06:32:54.263Z,23.40
2022-07-25T06:35:24.591Z,23.50
2022-07-25T06:37:54.716Z,23.50
2022-07-25T06:40:24.037Z,23.50
2022-07-25T06:42:58.151Z,23.60
2022-07-25T06:45:31.005Z,24.00
2022-07-25T06:48:02.465Z,24.20
2022-07-25T06:50:32.874Z,24.30
2022-07-25T06:53:07.672Z,24.60
2022-07-25T06:55:37.344Z,25.00
2022-07-25T06:58:08.103Z,24.70
2022-07-25T07:00:39.010Z,24.60
2022-07-25T07:22:27.148Z,24.00
2022-07-25T07:25:17.272Z,24.00
2022-07-25T07:34:25.479Z,24.00
2022-07-25T07:36:58.274Z,24.10
2022-07-25T07:39:27.329Z,24.10
2022-07-25T07:41:56.653Z,24.20
2022-07-25T07:44:31.129Z,24.20
2022-07-25T07:47:03.254Z,24.30
2022-07-25T07:49:36.950Z,24.30
2022-07-25T07:52:08.149Z,24.50
2022-07-25T07:54:59.199Z,24.70
2022-07-25T08:34:36.394Z,24.90
2022-07-25T08:37:11.782Z,24.80
2022-07-25T08:39:42.053Z,24.30
2022-07-25T08:42:12.751Z,24.10
2022-07-25T08:44:48.769Z,24.00
2022-07-25T08:47:21.215Z,24.20
2022-07-25T08:49:52.116Z,24.60
2022-07-25T08:52:22.423Z,25.40
2022-07-25T08:54:53.086Z,25.70
2022-07-25T08:57:22.852Z,25.80
2022-07-25T08:59:53.870Z,25.80
2022-07-25T09:02:24.938Z,25.90
2022-07-25T09:04:57.633Z,25.90
2022-07-25T09:07:40.348Z,25.90
2022-07-25T09:10:25.169Z,26.20
2022-07-25T09:13:02.163Z,26.20
2022-07-25T09:15:32.885Z,25.90
2022-07-25T09:18:05.909Z,25.80
2022-07-25T09:20:49.216Z,25.80
2022-07-25T09:23:31.191Z,25.60
2022-07-25T09:26:11.120Z,25.40
2022-07-25T09:28:42.902Z,25.30
2022-07-25T09:31:12.912Z,25.30
2022-07-25T09:33:48.917Z,25.10
2022-07-25T09:36:20.490Z,25.10
2022-07-25T09:39:14.288Z,25.20
2022-07-25T09:41:50.735Z,25.20
2022-07-25T09:44:31.509Z,25.10
2022-07-25T09:47:13.133Z,25.00
2022-07-25T09:49:57.346Z,25.10
2022-07-25T09:52:41.825Z,25.20
2022-07-25T09:55:14.659Z,25.70
2022-07-25T09:57:53.416Z,26.30
2022-07-25T10:00:26.874Z,26.90
2022-07-25T10:03:11.222Z,27.20
2022-07-25T10:06:03.576Z,27.70
2022-07-25T10:08:38.832Z,28.20
2022-07-25T10:11:09.511Z,28.00
2022-07-25T10:13:39.848Z,27.20
2022-07-25T10:16:19.468Z,26.90
2022-07-25T10:18:55.417Z,26.80
2022-07-25T10:21:27.678Z,26.60
2022-07-25T10:24:09.498Z,26.60
2022-07-25T10:26:42.504Z,26.70
2022-07-25T10:29:15.216Z,26.90
2022-07-25T10:32:01.960Z,27.50
2022-07-25T10:34:43.260Z,27.30
2022-07-25T10:37:21.432Z,26.80
2022-07-25T10:40:02.731Z,26.60
2022-07-25T10:42:35.991Z,26.30
2022-07-25T10:45:10.391Z,26.20
2022-07-25T10:47:57.126Z,26.30
2022-07-25T10:50:54.471Z,26.10
2022-07-25T10:53:42.315Z,26.00
2022-07-25T10:56:22.322Z,27.50
2022-07-25T10:58:54.414Z,28.00
2022-07-25T11:01:28.146Z,27.90
2022-07-25T11:04:03.639Z,27.30
2022-07-25T11:06:37.142Z,27.10
2022-07-25T11:09:23.827Z,26.60
2022-07-25T11:12:02.146Z,26.40
2022-07-25T11:14:35.007Z,26.10
2022-07-25T11:17:20.119Z,26.10
2022-07-25T11:20:02.181Z,26.20
2022-07-25T11:22:33.277Z,26.30
2022-07-25T11:25:02.964Z,26.30
2022-07-25T11:27:38.823Z,26.30
2022-07-25T11:30:09.734Z,26.00
2022-07-25T11:35:39.237Z,26.40
2022-07-25T11:38:10.226Z,26.10
2022-07-25T11:40:47.076Z,26.00
2022-07-25T11:43:29.513Z,25.90
2022-07-25T11:46:08.357Z,25.80
2022-07-25T11:48:43.115Z,25.60
2022-07-25T11:51:18.998Z,25.50
2022-07-25T11:53:55.598Z,25.50
2022-07-25T11:59:35.214Z,25.10
2022-07-25T12:02:06.988Z,25.00
2022-07-25T12:04:37.787Z,24.70
2022-07-25T12:07:08.500Z,24.50
2022-07-25T12:09:40.220Z,24.20
2022-07-25T12:12:17.283Z,24.10
2022-07-25T12:15:06.266Z,24.00
2022-07-25T12:17:59.182Z,23.90
2022-07-25T12:20:36.503Z,23.90
2022-07-25T12:23:10.390Z,23.90
2022-07-25T12:25:43.851Z,23.90
2022-07-25T12:28:16.826Z,24.00
2022-07-25T12:30:54.319Z,24.00
2022-07-25T12:33:28.596Z,23.90
2022-07-25T12:36:02.966Z,24.00
2022-07-25T12:38:35.397Z,24.00
2022-07-25T12:41:17.977Z,24.30
2022-07-25T12:43:55.940Z,24.70
2022-07-25T12:46:31.626Z,25.00
2022-07-25T12:49:04.364Z,24.80
2022-07-25T12:51:45.315Z,25.40
2022-07-25T12:54:29.003Z,26.30
2022-07-25T12:57:03.849Z,27.50
2022-07-25T12:59:34.147Z,27.80
2022-07-25T13:02:13.937Z,27.80
2022-07-25T13:04:45.702Z,27.30
2022-07-25T13:55:30.174Z,26.80
2022-07-25T14:04:19.719Z,26.00
2022-07-25T14:28:03.776Z,26.70
2022-07-25T14:30:42.422Z,26.60
2022-07-25T14:33:29.785Z,26.00
2022-07-25T14:36:07.769Z,26.80
2022-07-25T14:38:40.439Z,27.30
2022-07-25T14:41:13.433Z,27.00
2022-07-25T14:43:43.105Z,27.50
2022-07-25T14:46:19.184Z,27.70
2022-07-25T14:48:58.858Z,27.50
2022-07-25T14:51:33.803Z,27.40
2022-07-25T14:54:06.626Z,27.50
2022-07-25T14:56:40.565Z,27.60
2022-07-25T15:04:34.709Z,27.50
2022-07-25T15:07:23.308Z,27.40
2022-07-25T15:10:08.547Z,27.40
2022-07-25T15:12:38.703Z,27.20
2022-07-25T15:15:20.818Z,27.40
2022-07-25T15:17:51.813Z,27.40
2022-07-25T15:20:29.700Z,27.30
2022-07-25T15:23:09.189Z,27.20
2022-07-25T15:26:02.252Z,27.20
2022-07-25T15:28:35.506Z,26.90
2022-07-25T15:31:14.987Z,26.80
2022-07-25T15:33:52.126Z,26.60
2022-07-25T15:36:29.111Z,26.60
2022-07-25T15:39:13.229Z,26.30
2022-07-25T15:41:45.783Z,26.40
2022-07-25T15:44:25.335Z,26.40
2022-07-25T15:46:57.471Z,26.20
2022-07-25T15:49:32.916Z,26.20
2022-07-25T15:52:02.992Z,26.20
2022-07-25T15:54:41.973Z,26.10
2022-07-25T15:57:17.497Z,26.10
2022-07-25T15:59:54.245Z,26.10
2022-07-25T16:02:25.020Z,25.70
2022-07-25T16:04:53.587Z,25.60
2022-07-25T16:07:25.203Z,25.70
2022-07-25T16:09:57.595Z,25.70
2022-07-25T16:12:28.611Z,25.90
2022-07-25T16:14:59.681Z,25.90
2022-07-25T16:17:32.254Z,25.40
2022-07-25T16:20:03.345Z,25.10
2022-07-25T16:22:32.243Z,24.90
2022-07-25T16:25:05.146Z,25.20
2022-07-25T16:27:38.181Z,25.20
2022-07-25T16:30:16.406Z,25.40
2022-07-25T16:32:48.483Z,25.40
2022-07-25T16:35:17.866Z,25.20
2022-07-25T16:37:47.015Z,25.10
2022-07-25T16:40:17.677Z,24.90
2022-07-25T16:42:49.881Z,24.60
2022-07-25T16:45:18.866Z,24.40
2022-07-25T16:47:48.574Z,24.40
2022-07-25T16:50:17.360Z,24.40
2022-07-25T16:52:46.094Z,24.40
2022-07-25T16:55:19.723Z,24.50
2022-07-25T16:57:50.400Z,24.40
2022-07-25T17:00:19.623Z,24.20
2022-07-25T17:02:50.089Z,24.30
2022-07-25T17:05:19.475Z,24.30
2022-07-25T17:07:58.746Z,24.20
2022-07-25T17:10:30.301Z,24.30
2022-07-25T17:12:58.974Z,24.30
2022-07-25T17:15:32.297Z,24.10
2022-07-25T17:18:02.366Z,24.00
2022-07-25T17:20:31.244Z,24.00
2022-07-25T17:23:08.244Z,24.10
2022-07-25T17:25:38.469Z,24.00
2022-07-25T17:28:13.298Z,23.80
2022-07-25T17:30:42.127Z,23.60
2022-07-25T17:33:10.730Z,23.50
2022-07-25T17:35:42.426Z,23.40
2022-07-25T17:38:14.441Z,23.30
2022-07-25T17:40:49.656Z,23.40
2022-07-25T17:43:23.754Z,23.30
2022-07-25T17:45:55.331Z,23.30
2022-07-25T17:48:28.570Z,23.20
2022-07-25T17:50:57.438Z,23.10
2022-07-25T17:53:26.210Z,23.20
2022-07-25T17:55:56.502Z,23.20
2022-07-25T17:58:26.456Z,23.10
2022-07-25T18:00:59.559Z,23.00
2022-07-25T18:03:29.840Z,23.00
2022-07-25T18:06:01.084Z,22.70
2022-07-25T18:08:35.450Z,22.80
2022-07-25T18:11:11.444Z,22.70
2022-07-25T18:13:44.399Z,22.60
2022-07-25T18:16:17.671Z,22.50
2022-07-25T18:18:46.396Z,22.50
2022-07-25T18:21:17.265Z,22.50
2022-07-25T18:23:51.715Z,22.40
2022-07-25T18:26:23.885Z,22.40
2022-07-25T18:28:52.495Z,22.40
2022-07-25T18:31:32.277Z,22.30
2022-07-25T18:34:02.768Z,22.30
2022-07-25T18:36:31.532Z,22.30
2022-07-25T18:39:02.358Z,22.30
2022-07-25T18:41:34.522Z,22.30
2022-07-25T18:44:06.744Z,22.20
2022-07-25T18:46:36.126Z,22.10
2022-07-25T18:49:08.467Z,22.10
2022-07-25T18:51:41.022Z,22.10
2022-07-25T18:54:10.979Z,22.00
2022-07-25T18:56:43.450Z,22.00
2022-07-25T18:59:12.519Z,21.90
2022-07-25T19:01:48.573Z,22.00
2022-07-25T19:04:18.811Z,21.80
2022-07-25T19:06:50.991Z,21.80
2022-07-25T19:09:20.961Z,21.70
2022-07-25T19:12:08.852Z,21.70
2022-07-25T19:14:49.216Z,21.80
2022-07-25T19:17:18.472Z,21.70
2022-07-25T19:19:48.219Z,21.70
2022-07-25T19:22:18.621Z,21.70
2022-07-25T19:24:51.100Z,21.50
2022-07-25T19:27:25.088Z,21.60
2022-07-25T19:29:55.850Z,21.70
2022-07-25T19:32:24.609Z,21.60
2022-07-25T19:35:04.045Z,21.60
2022-07-25T19:37:42.768Z,21.60
2022-07-25T19:40:12.105Z,21.50
2022-07-25T19:42:43.430Z,21.40
2022-07-25T19:45:14.257Z,21.40
2022-07-25T19:48:20.935Z,21.30
2022-07-25T19:50:51.650Z,21.30
2022-07-25T19:53:28.457Z,21.30
2022-07-25T19:56:03.226Z,21.20
2022-07-25T19:58:43.349Z,21.20
2022-07-25T20:01:13.354Z,21.20
2022-07-25T20:03:47.475Z,21.20
2022-07-25T20:06:20.143Z,21.10
2022-07-25T20:08:55.932Z,21.10
2022-07-25T20:11:33.407Z,21.10
2022-07-25T20:14:04.953Z,21.10
2022-07-25T20:16:45.088Z,21.10
2022-07-25T20:19:20.954Z,21.00
2022-07-25T20:21:59.267Z,21.10
2022-07-25T20:24:31.423Z,21.00
2022-07-25T20:27:11.411Z,21.00
2022-07-25T20:29:47.664Z,21.00
2022-07-25T20:32:24.557Z,20.80
2022-07-25T20:34:54.490Z,20.80
2022-07-25T20:37:26.498Z,20.80
2022-07-25T20:40:03.828Z,20.70
2022-07-25T20:42:33.129Z,20.70
2022-07-25T20:45:10.117Z,20.70
2022-07-25T20:47:47.418Z,20.50
2022-07-25T20:50:18.754Z,20.50
2022-07-25T20:52:53.693Z,20.50
2022-07-25T20:55:29.675Z,20.40
2022-07-25T20:57:59.281Z,20.40
2022-07-25T21:00:46.518Z,20.30
2022-07-25T21:03:20.999Z,20.30
2022-07-25T21:05:56.736Z,20.30
2022-07-25T21:08:36.542Z,20.30
2022-07-25T21:11:10.612Z,20.20
2022-07-25T21:13:42.461Z,20.20
2022-07-25T21:16:29.482Z,20.20
2022-07-25T21:19:05.656Z,20.10
2022-07-25T21:21:42.183Z,20.10
2022-07-25T21:24:14.774Z,20.10
2022-07-25T21:26:48.518Z,20.00
2022-07-25T21:29:38.484Z,19.90
2022-07-25T21:32:32.855Z,20.00
2022-07-25T21:35:07.450Z,19.90
2022-07-25T21:37:50.523Z,19.90
2022-07-25T21:40:34.748Z,19.80
2022-07-25T21:43:24.705Z,19.90
2022-07-25T21:46:19.104Z,19.80
2022-07-25T21:49:48.532Z,19.80
2022-07-25T21:52:35.270Z,19.70
2022-07-25T22:03:35.348Z,19.80
2022-07-25T22:06:19.030Z,19.70
2022-07-25T22:09:09.597Z,19.70
2022-07-25T22:11:58.758Z,19.60
2022-07-25T22:14:48.404Z,19.60
2022-07-25T22:17:48.540Z,19.60
2022-07-25T22:20:34.344Z,19.60
2022-07-25T22:23:05.406Z,19.60
2022-07-25T22:25:45.348Z,19.70
2022-07-25T22:31:24.750Z,19.70
2022-07-25T22:33:56.416Z,19.70
2022-07-25T22:36:35.217Z,19.80
2022-07-25T22:39:06.486Z,19.80
2022-07-25T22:41:44.677Z,19.80
2022-07-25T22:44:14.735Z,19.80
2022-07-25T22:46:58.755Z,19.80
2022-07-25T22:49:37.663Z,19.70
2022-07-25T22:52:10.921Z,19.80
2022-07-25T22:54:42.713Z,19.90
2022-07-25T22:57:22.024Z,19.90
2022-07-25T23:00:07.493Z,19.80
2022-07-25T23:02:55.122Z,19.80
2022-07-25T23:08:31.656Z,19.90
2022-07-25T23:11:32.862Z,19.90
2022-07-25T23:17:13.470Z,19.90
2022-07-25T23:19:46.637Z,20.00
2022-07-25T23:22:29.111Z,20.00
2022-07-25T23:25:01.717Z,19.90
2022-07-25T23:27:35.026Z,19.90
2022-07-25T23:30:22.717Z,20.00
2022-07-25T23:32:51.849Z,19.90
2022-07-25T23:35:22.525Z,19.90
2022-07-25T23:37:54.175Z,19.90
2022-07-25T23:40:29.483Z,19.90
2022-07-25T23:43:01.360Z,19.90
2022-07-25T23:45:50.165Z,19.80
2022-07-25T23:48:34.251Z,19.80
2022-07-25T23:51:06.727Z,19.80
2022-07-25T23:53:46.122Z,19.80
2022-07-25T23:56:20.811Z,19.80
2022-07-25T23:58:57.362Z,19.80
